Time;durP1;ratioP1;P1;durP2;ratioP2;P2;SDS_P1;SDS_P2;PMS_P1;PMS_P2;Temp;Humidity;BMP_temperature;BMP_pressure;BME280_temperature;BME280_humidity;BME280_pressure;Samples;Min_cycle;Max_cycle;Signal;HPM_P1;HPM_P2
2022/03/14 05:22:48;;;;;;;5.28;2.20;;;;;;;7.56;100.00;101119.72;5129908;27;20169;-71
2022/03/14 05:25:22;;;;;;;2.95;1.77;;;;;;;7.57;100.00;101121.38;5112003;28;20035;-72
2022/03/14 05:27:49;;;;;;;3.63;1.95;;;;;;;7.61;100.00;101128.06;5129852;28;20480;-72
2022/03/14 05:30:15;;;;;;;7.35;1.55;;;;;;;7.59;100.00;101127.38;5129790;28;20043;-73
2022/03/14 05:32:42;;;;;;;4.43;2.17;;;;;;;7.60;100.00;101137.00;5106501;22;20040;-76
2022/03/14 05:35:11;;;;;;;8.73;2.10;;;;;;;7.61;100.00;101151.09;5067299;28;20621;-75
2022/03/14 05:37:39;;;;;;;4.00;1.90;;;;;;;7.62;100.00;101150.97;5068489;28;20416;-76
2022/03/14 05:40:06;;;;;;;2.67;1.52;;;;;;;7.61;100.00;101151.09;5068471;28;20436;-75
2022/03/14 05:42:32;;;;;;;2.90;1.60;;;;;;;7.60;100.00;101152.09;5068595;28;20120;-76
2022/03/14 05:44:57;;;;;;;6.63;2.08;;;;;;;7.64;100.00;101158.81;5068574;28;20503;-76
2022/03/14 05:47:24;;;;;;;2.58;1.92;;;;;;;7.61;100.00;101161.72;5067117;28;20044;-76
2022/03/14 05:49:49;;;;;;;5.03;2.13;;;;;;;7.65;100.00;101160.50;5068167;28;20041;-76
2022/03/14 05:52:16;;;;;;;3.30;1.48;;;;;;;7.66;100.00;101167.47;5067892;28;20114;-76
2022/03/14 05:54:41;;;;;;;4.60;1.90;;;;;;;7.71;100.00;101178.53;5066979;28;20066;-76
2022/03/14 05:57:07;;;;;;;5.18;2.25;;;;;;;7.72;100.00;101169.59;5068368;28;20032;-76
2022/03/14 05:59:32;;;;;;;6.07;2.42;;;;;;;7.71;99.74;101175.88;5069158;28;20037;-76
2022/03/14 06:01:58;;;;;;;7.05;2.22;;;;;;;7.73;100.00;101179.22;5068558;28;20060;-76
2022/03/14 06:04:24;;;;;;;4.65;2.20;;;;;;;7.71;99.76;101180.34;5068147;28;20524;-76
2022/03/14 06:06:50;;;;;;;4.47;1.92;;;;;;;7.72;100.00;101192.63;5035130;28;20447;-76
2022/03/14 06:09:15;;;;;;;8.18;1.90;;;;;;;7.66;100.00;101179.88;5067856;28;20045;-76
2022/03/14 06:11:42;;;;;;;2.75;1.67;;;;;;;7.71;99.62;101189.13;5067308;28;20028;-76
2022/03/14 06:14:08;;;;;;;5.20;2.40;;;;;;;7.67;100.00;101194.81;5066527;28;20041;-76
2022/03/14 06:16:34;;;;;;;6.43;2.38;;;;;;;7.60;100.00;101205.94;5066409;28;20029;-76
2022/03/14 06:19:00;;;;;;;7.97;2.53;;;;;;;7.54;100.00;101206.47;5067636;28;20398;-76
2022/03/14 06:21:26;;;;;;;10.35;3.17;;;;;;;7.54;100.00;101213.59;5067377;28;20470;-76
2022/03/14 06:23:54;;;;;;;5.07;2.60;;;;;;;7.48;100.00;101214.94;5067465;28;20502;-76
2022/03/14 06:26:19;;;;;;;5.53;1.90;;;;;;;7.56;100.00;101215.16;5067489;28;20029;-75
2022/03/14 06:28:45;;;;;;;7.65;2.35;;;;;;;7.59;100.00;101220.19;5066186;28;20036;-75
2022/03/14 06:31:11;;;;;;;9.73;2.05;;;;;;;7.58;100.00;101228.28;5065915;28;20095;-72
2022/03/14 06:33:37;;;;;;;5.22;1.95;;;;;;;7.63;100.00;101215.47;5037876;28;20103;-72
2022/03/14 06:36:03;;;;;;;10.52;2.67;;;;;;;7.64;100.00;101222.47;5052850;28;20044;-72
2022/03/14 06:38:29;;;;;;;4.65;2.05;;;;;;;7.56;100.00;101223.13;5054002;28;20041;-71
2022/03/14 06:40:56;;;;;;;7.97;2.03;;;;;;;7.63;100.00;101228.75;5052772;28;20410;-72
2022/03/14 06:43:23;;;;;;;8.35;2.13;;;;;;;7.67;100.00;101227.47;5052499;28;20059;-72
2022/03/14 06:45:49;;;;;;;6.43;2.10;;;;;;;7.73;100.00;101224.31;5054067;28;20033;-72
2022/03/14 06:48:15;;;;;;;7.03;2.13;;;;;;;7.75;100.00;101232.13;5053867;28;20098;-71
2022/03/14 06:50:41;;;;;;;8.43;2.30;;;;;;;7.95;100.00;101239.22;5054115;28;20492;-72
2022/03/14 06:53:06;;;;;;;8.93;2.00;;;;;;;8.07;100.00;101242.63;5053433;28;20040;-72
2022/03/14 06:55:32;;;;;;;5.65;2.20;;;;;;;8.14;100.00;101244.63;5052514;28;20107;-72
2022/03/14 06:57:59;;;;;;;3.90;2.10;;;;;;;8.14;99.87;101249.09;5035941;28;20482;-71
2022/03/14 07:00:26;;;;;;;6.07;2.20;;;;;;;8.02;100.00;101250.13;5053800;28;20108;-71
2022/03/14 07:02:54;;;;;;;5.65;1.90;;;;;;;8.06;99.34;101254.22;5051997;28;20029;-71
2022/03/14 07:05:20;;;;;;;3.90;1.83;;;;;;;8.04;98.02;101257.00;5052448;28;20040;-69
2022/03/14 07:07:47;;;;;;;7.28;2.20;;;;;;;8.11;97.40;101252.00;5053554;28;20077;-71
2022/03/14 07:10:14;;;;;;;6.38;1.70;;;;;;;8.05;97.25;101258.69;5053523;28;20130;-70
2022/03/14 07:12:48;;;;;;;8.90;2.10;;;;;;;8.07;96.54;101262.03;5053292;28;20048;-72
2022/03/14 07:15:16;;;;;;;5.53;1.98;;;;;;;7.99;96.97;101264.53;5053366;28;20072;-72
2022/03/14 07:17:43;;;;;;;4.43;1.83;;;;;;;8.01;97.41;101275.00;5053445;28;20086;-72
2022/03/14 07:20:11;;;;;;;4.95;1.83;;;;;;;8.14;98.23;101281.78;5053339;28;20516;-71
2022/03/14 07:22:53;;;;;;;;;;;;;;;8.31;96.67;101290.09;5035703;28;20055;-71
2022/03/14 07:25:21;;;;;;;6.15;1.92;;;;;;;8.35;95.34;101294.19;5053402;28;19916;-71
2022/03/14 07:27:47;;;;;;;;;;;;;;;8.48;95.20;101307.25;5053716;28;20127;-70
2022/03/14 07:30:14;;;;;;;5.65;2.33;;;;;;;8.52;94.57;101309.50;5053532;28;20013;-71
2022/03/14 07:32:40;;;;;;;3.40;1.80;;;;;;;8.45;93.71;101303.03;5054168;28;20501;-70
2022/03/14 07:35:07;;;;;;;3.67;1.90;;;;;;;8.64;92.25;101326.19;5055346;28;20124;-70
2022/03/14 07:37:32;;;;;;;5.70;1.90;;;;;;;8.52;92.14;101319.28;5053036;28;20037;-71
2022/03/14 07:39:58;;;;;;;3.60;1.63;;;;;;;8.50;94.41;101308.81;5051795;28;20041;-71
2022/03/14 07:42:24;;;;;;;7.78;1.90;;;;;;;8.65;91.72;101325.19;5051420;28;20040;-72
2022/03/14 07:44:50;;;;;;;7.00;1.70;;;;;;;8.51;91.39;101321.09;5050855;28;20159;-71
2022/03/14 07:47:16;;;;;;;4.07;1.63;;;;;;;8.65;92.14;101341.13;5053058;28;20055;-71
2022/03/14 07:49:41;;;;;;;2.78;1.40;;;;;;;8.59;90.98;101336.34;5053106;28;20505;-71
2022/03/14 07:52:07;;;;;;;5.60;2.08;;;;;;;8.57;90.01;101336.50;5052511;28;20493;-72
2022/03/14 07:54:36;;;;;;;5.30;1.80;;;;;;;8.64;89.86;101348.25;5052773;28;20045;-71
2022/03/14 07:57:02;;;;;;;3.17;1.48;;;;;;;8.65;88.94;101354.41;5052921;28;20065;-71
2022/03/14 07:59:27;;;;;;;6.10;2.20;;;;;;;8.88;89.92;101363.03;5052838;28;20075;-71
2022/03/14 08:01:53;;;;;;;3.08;1.38;;;;;;;9.15;87.43;101349.13;5052517;28;20032;-71
2022/03/14 08:04:19;;;;;;;4.32;1.80;;;;;;;9.37;85.18;101353.34;5053067;28;20045;-72
2022/03/14 08:06:45;;;;;;;4.82;1.65;;;;;;;9.47;83.77;101355.03;5052780;28;20521;-71
2022/03/14 08:09:11;;;;;;;3.95;1.73;;;;;;;9.74;84.93;101366.78;5051661;28;20033;-71
2022/03/14 08:11:40;;;;;;;5.68;2.13;;;;;;;9.94;84.02;101373.78;5052402;28;20175;-70
2022/03/14 08:14:06;;;;;;;7.07;1.70;;;;;;;10.10;82.74;101367.03;5051856;28;20081;-71
2022/03/14 08:16:31;;;;;;;5.32;1.88;;;;;;;9.99;80.92;101370.69;5053257;28;20033;-72
2022/03/14 08:18:57;;;;;;;5.50;1.65;;;;;;;10.13;82.61;101380.06;5053633;28;20094;-71
2022/03/14 08:21:24;;;;;;;7.10;1.95;;;;;;;10.13;81.35;101375.56;5052790;28;20459;-71
2022/03/14 08:23:50;;;;;;;3.70;1.63;;;;;;;9.98;78.93;101377.84;5052574;28;20116;-71
2022/03/14 08:26:17;;;;;;;6.53;1.73;;;;;;;10.08;78.94;101380.47;5051598;28;20064;-71
2022/03/14 08:28:44;;;;;;;3.10;1.50;;;;;;;10.06;78.50;101385.13;5053019;28;20029;-71
2022/03/14 08:31:11;;;;;;;3.13;1.30;;;;;;;10.36;78.44;101369.94;5052538;28;20048;-71
2022/03/14 08:33:41;;;;;;;7.97;1.98;;;;;;;10.56;78.21;101368.88;5052104;28;20786;-72
2022/03/14 08:36:08;;;;;;;2.95;1.40;;;;;;;10.76;73.58;101370.53;5051108;28;20033;-71
2022/03/14 08:38:33;;;;;;;5.20;1.50;;;;;;;10.78;75.02;101378.34;5051972;28;20493;-71
2022/03/14 08:40:59;;;;;;;3.60;1.50;;;;;;;10.84;73.97;101381.28;5050928;28;20098;-71
2022/03/14 08:43:25;;;;;;;4.55;1.58;;;;;;;10.83;72.34;101390.25;5051968;28;20033;-71
2022/03/14 08:45:52;;;;;;;3.92;1.35;;;;;;;11.01;72.00;101387.63;5052220;28;20102;-71
2022/03/14 08:48:21;;;;;;;4.28;1.63;;;;;;;11.10;71.61;101389.41;5051338;28;20041;-71
2022/03/14 08:50:46;;;;;;;3.92;1.40;;;;;;;11.39;71.89;101388.38;5052343;28;20486;-71
2022/03/14 08:53:13;;;;;;;4.97;1.73;;;;;;;11.60;71.27;101386.25;5052054;28;20036;-71
2022/03/14 08:55:39;;;;;;;5.93;1.58;;;;;;;11.65;70.95;101385.81;5052462;28;20474;-71
2022/03/14 08:58:04;;;;;;;4.35;1.48;;;;;;;11.88;69.93;101387.06;5050659;28;20040;-71
2022/03/14 09:00:31;;;;;;;3.63;1.42;;;;;;;12.16;67.76;101393.13;5051591;28;20041;-71
2022/03/14 09:02:56;;;;;;;4.65;1.95;;;;;;;12.00;65.20;101387.66;5050042;28;20091;-71
2022/03/14 09:05:23;;;;;;;5.15;1.40;;;;;;;12.13;67.31;101397.94;5051665;28;20059;-71
2022/03/14 09:07:49;;;;;;;8.10;2.33;;;;;;;12.01;64.67;101404.53;5051574;28;20128;-71
2022/03/14 09:10:15;;;;;;;6.82;1.63;;;;;;;12.13;66.21;101411.31;5051607;28;20489;-71
2022/03/14 09:12:44;;;;;;;4.40;1.50;;;;;;;12.36;63.34;101406.28;5051300;28;20501;-71
2022/03/14 09:15:12;;;;;;;4.22;1.77;;;;;;;12.15;63.87;101415.47;5051456;28;20116;-71
2022/03/14 09:17:57;;;;;;;7.43;1.35;;;;;;;12.46;61.65;101404.34;5052135;28;20083;-71
2022/03/14 09:20:24;;;;;;;8.38;1.75;;;;;;;12.46;61.44;101415.03;5052115;28;20045;-71
2022/03/14 09:22:51;;;;;;;10.95;2.17;;;;;;;12.60;62.09;101417.13;5051592;28;20040;-71
2022/03/14 09:25:19;;;;;;;7.30;2.10;;;;;;;12.77;61.76;101412.69;5052031;28;20029;-71
2022/03/14 09:27:44;;;;;;;;;;;;;;;12.88;58.65;101419.63;5052635;28;20494;-72
2022/03/14 09:30:12;;;;;;;4.63;1.60;;;;;;;12.85;61.33;101414.59;5051381;28;19955;-71
2022/03/14 09:32:38;;;;;;;7.70;2.25;;;;;;;12.91;59.18;101411.25;5051070;28;20450;-71
2022/03/14 09:35:05;;;;;;;6.50;1.80;;;;;;;13.19;59.94;101419.91;5051285;28;20068;-71
2022/03/14 09:37:31;;;;;;;5.93;1.93;;;;;;;13.40;58.77;101414.16;5052042;28;20040;-71
2022/03/14 09:39:57;;;;;;;4.80;1.80;;;;;;;13.78;59.21;101413.56;5051034;28;20044;-71
2022/03/14 09:42:24;;;;;;;9.55;1.58;;;;;;;13.89;57.26;101416.91;5051816;28;20037;-71
2022/03/14 09:44:53;;;;;;;4.68;1.73;;;;;;;14.25;56.79;101410.22;5051653;28;20367;-71
2022/03/14 09:47:25;;;;;;;7.63;1.40;;;;;;;14.49;55.31;101412.06;5051284;28;20047;-71
2022/03/14 09:49:57;;;;;;;4.60;1.50;;;;;;;14.77;53.97;101417.84;5051143;28;20045;-71
2022/03/14 09:52:24;;;;;;;4.70;1.45;;;;;;;14.40;52.98;101432.63;5050862;28;20041;-71
2022/03/14 09:54:50;;;;;;;4.28;1.60;;;;;;;14.54;54.74;101435.66;5051352;28;20021;-71
2022/03/14 09:57:19;;;;;;;6.60;1.93;;;;;;;15.37;52.24;101427.16;5051674;28;20445;-72
2022/03/14 09:59:45;;;;;;;;;;;;;;;15.73;53.12;101438.22;5050378;28;20344;-71
2022/03/14 10:02:15;;;;;;;4.40;1.65;;;;;;;15.83;51.51;101432.59;5050801;28;20435;-71
2022/03/14 10:04:40;;;;;;;4.63;1.58;;;;;;;16.31;49.86;101441.31;5051148;28;20059;-72
2022/03/14 10:07:07;;;;;;;6.68;1.52;;;;;;;16.45;48.17;101440.50;5051513;28;20482;-72
2022/03/14 10:09:34;;;;;;;5.30;1.50;;;;;;;16.28;47.07;101434.44;5055172;28;20037;-72
2022/03/14 10:12:01;;;;;;;5.00;1.55;;;;;;;16.83;48.11;101440.47;5054408;28;20116;-72
2022/03/14 10:14:26;;;;;;;5.35;1.77;;;;;;;17.33;47.96;101436.97;5054757;28;20055;-72
2022/03/14 10:16:56;;;;;;;5.93;1.30;;;;;;;17.45;43.61;101440.03;5053571;28;20119;-72
2022/03/14 10:19:34;;;;;;;3.95;1.48;;;;;;;17.27;45.12;101451.19;5053766;28;20036;-72
2022/03/14 10:22:16;;;;;;;4.28;1.40;;;;;;;17.76;43.41;101447.88;5054403;28;20398;-72
2022/03/14 10:24:44;;;;;;;4.95;1.63;;;;;;;17.44;45.31;101439.19;5054783;28;20067;-72
2022/03/14 10:27:11;;;;;;;7.97;1.58;;;;;;;16.08;45.60;101458.28;5055394;28;20063;-71
2022/03/14 10:29:37;;;;;;;5.15;1.63;;;;;;;15.73;46.54;101454.34;5057163;28;20049;-71
2022/03/14 10:32:24;;;;;;;6.38;1.40;;;;;;;15.95;47.67;101458.88;5057044;28;20498;-72
2022/03/14 10:34:52;;;;;;;5.47;1.85;;;;;;;16.02;46.33;101467.06;5058457;28;20029;-72
2022/03/14 10:37:17;;;;;;;;;;;;;;;16.49;47.49;101471.38;5058644;28;20471;-72
2022/03/14 10:39:43;;;;;;;3.25;1.27;;;;;;;15.77;46.34;101461.00;5056107;28;19974;-72
2022/03/14 10:42:12;;;;;;;3.50;1.40;;;;;;;15.60;46.74;101467.50;5056964;28;20044;-72
2022/03/14 10:44:42;;;;;;;4.05;1.50;;;;;;;14.18;49.25;101478.03;5056161;28;20397;-73
2022/03/14 10:47:13;;;;;;;2.45;1.60;;;;;;;15.07;48.91;101463.72;5054641;28;20104;-71
2022/03/14 10:49:40;;;;;;;2.83;1.13;;;;;;;16.05;47.01;101464.03;5055177;28;20052;-71
2022/03/14 10:52:07;;;;;;;3.53;1.23;;;;;;;16.90;45.45;101465.63;5053912;28;20414;-71
2022/03/14 10:54:42;;;;;;;2.42;1.20;;;;;;;16.88;43.79;101465.78;5054211;28;20029;-70
2022/03/14 10:57:08;;;;;;;2.90;1.10;;;;;;;16.18;45.46;101463.44;5054236;28;20040;-71
2022/03/14 10:59:44;;;;;;;5.00;1.10;;;;;;;15.25;47.63;101485.75;5054113;28;20033;-70
2022/03/14 11:02:11;;;;;;;5.97;1.55;;;;;;;14.91;47.89;101472.63;5052544;28;20484;-72
2022/03/14 11:04:45;;;;;;;;;;;;;;;14.33;49.77;101484.41;5054510;28;20082;-72
2022/03/14 11:07:11;;;;;;;2.63;1.30;;;;;;;14.26;50.14;101486.06;5053559;28;20317;-72
2022/03/14 11:09:42;;;;;;;6.63;1.60;;;;;;;14.09;52.33;101483.41;5052330;28;20035;-72
2022/03/14 11:12:13;;;;;;;2.92;1.48;;;;;;;14.41;50.76;101476.38;5053129;28;20033;-71
2022/03/14 11:14:39;;;;;;;3.35;1.40;;;;;;;14.56;50.92;101477.41;5053634;28;20163;-72
2022/03/14 11:17:17;;;;;;;5.63;2.58;;;;;;;14.41;51.64;101471.03;5054144;28;20444;-72
2022/03/14 11:19:44;;;;;;;8.00;1.48;;;;;;;14.22;52.18;101474.88;5052436;28;20541;-71
2022/03/14 11:22:11;;;;;;;4.07;1.50;;;;;;;14.40;52.07;101470.16;5053171;28;20052;-71
2022/03/14 11:24:45;;;;;;;;;;;;;;;14.21;53.11;101473.16;5052842;28;20041;-71
2022/03/14 11:27:17;;;;;;;3.47;1.30;;;;;;;14.54;52.26;101467.81;5053469;28;19913;-70
2022/03/14 11:29:44;;;;;;;6.20;2.15;;;;;;;14.49;50.42;101463.00;5053365;28;20041;-70
2022/03/14 11:32:10;;;;;;;7.83;2.23;;;;;;;14.29;52.87;101462.47;5065938;22;20037;-72
2022/03/14 11:34:36;;;;;;;5.18;1.73;;;;;;;13.73;52.25;101445.34;5033309;28;20049;-73
2022/03/14 11:37:02;;;;;;;7.03;1.73;;;;;;;14.63;51.14;101445.38;5033512;28;20030;-73
2022/03/14 11:39:28;;;;;;;5.30;1.40;;;;;;;14.92;50.62;101450.16;5032164;28;20041;-72
2022/03/14 11:41:56;;;;;;;4.70;1.48;;;;;;;14.87;49.30;101444.50;5032991;28;20033;-72
2022/03/14 11:44:24;;;;;;;3.03;1.20;;;;;;;14.93;50.27;101446.44;5033261;28;20038;-71
2022/03/14 11:46:53;;;;;;;6.78;2.00;;;;;;;14.96;48.23;101450.66;5033098;28;20052;-71
2022/03/14 11:49:19;;;;;;;5.50;1.55;;;;;;;14.91;47.65;101448.47;5033064;28;20055;-71
2022/03/14 11:51:47;;;;;;;2.42;1.23;;;;;;;15.23;48.63;101454.75;5032822;28;20033;-70
2022/03/14 11:54:14;;;;;;;4.32;1.60;;;;;;;14.75;48.27;101452.06;5032911;28;20048;-70
2022/03/14 11:56:56;;;;;;;3.33;1.00;;;;;;;14.54;48.32;101457.97;5032915;28;20513;-70
2022/03/14 11:59:30;;;;;;;4.80;1.17;;;;;;;14.75;48.52;101456.59;5033155;28;20048;-70
2022/03/14 12:01:58;;;;;;;3.22;1.30;;;;;;;14.63;48.79;101461.47;5032628;28;20043;-70
2022/03/14 12:04:31;;;;;;;;;;;;;;;14.81;48.24;101454.06;5033263;28;20103;-71
2022/03/14 12:06:57;;;;;;;3.67;1.13;;;;;;;15.14;47.66;101445.91;5032925;28;19924;-70
2022/03/14 12:09:26;;;;;;;8.02;1.40;;;;;;;14.73;50.21;101448.69;5032844;28;20045;-70
2022/03/14 12:11:51;;;;;;;6.55;1.42;;;;;;;15.01;46.70;101442.94;5032377;28;20025;-70
2022/03/14 12:14:50;;;;;;;3.58;1.30;;;;;;;15.22;46.18;101447.72;5032791;28;20674;-70
2022/03/14 12:17:16;;;;;;;5.68;1.42;;;;;;;15.14;45.04;101444.06;4999984;28;20406;-70
2022/03/14 12:19:45;;;;;;;4.32;1.27;;;;;;;15.24;45.08;101449.19;5033270;28;20032;-70
2022/03/14 12:22:16;;;;;;;4.55;1.23;;;;;;;15.24;45.66;101451.03;5031886;28;20040;-71
2022/03/14 12:24:44;;;;;;;4.38;1.20;;;;;;;15.18;45.37;101448.03;5032912;28;20048;-70
2022/03/14 12:27:21;;;;;;;4.78;1.45;;;;;;;14.86;45.96;101456.19;5032376;28;20083;-71
2022/03/14 12:29:51;;;;;;;;;;;;;;;14.86;46.32;101445.47;5032624;28;20021;-71
2022/03/14 12:32:22;;;;;;;3.60;1.10;;;;;;;14.60;47.00;101461.78;5031409;28;19916;-70
2022/03/14 12:34:59;;;;;;;6.85;1.33;;;;;;;14.48;47.57;101455.97;5014439;28;20065;-69
2022/03/14 12:37:55;;;;;;;2.92;1.13;;;;;;;14.59;48.41;101454.75;5032246;28;20120;-69
2022/03/14 12:40:21;;;;;;;6.78;1.48;;;;;;;14.61;47.53;101453.59;5013242;28;20056;-71
2022/03/14 12:42:49;;;;;;;3.08;1.27;;;;;;;14.25;47.19;101453.09;5031949;28;20025;-71
2022/03/14 12:45:20;;;;;;;5.60;1.60;;;;;;;14.19;47.95;101461.78;5032306;28;20479;-71
2022/03/14 12:47:50;;;;;;;5.50;1.20;;;;;;;14.74;48.36;101447.72;5032070;28;20041;-70
2022/03/14 12:50:51;;;;;;;6.38;1.60;;;;;;;15.60;44.57;101446.84;5031924;28;20037;-70
2022/03/14 12:53:29;;;;;;;2.60;1.33;;;;;;;16.21;44.66;101446.91;5003176;28;20144;-71
2022/03/14 12:55:57;;;;;;;3.03;1.23;;;;;;;17.75;41.25;101440.81;5031930;28;20055;-70
2022/03/14 12:58:26;;;;;;;5.80;1.30;;;;;;;18.70;39.55;101437.69;5031881;28;20442;-70
2022/03/14 13:00:55;;;;;;;4.18;1.20;;;;;;;19.14;38.09;101436.50;5031708;28;20116;-70
2022/03/14 13:03:23;;;;;;;5.57;1.30;;;;;;;18.42;38.63;101452.00;5031334;28;20124;-70
2022/03/14 13:05:50;;;;;;;3.90;1.33;;;;;;;18.31;38.97;101449.00;5031726;28;20033;-71
2022/03/14 13:08:16;;;;;;;3.92;1.30;;;;;;;19.07;36.77;101441.03;5031598;28;20069;-71
2022/03/14 13:10:43;;;;;;;4.00;1.38;;;;;;;18.85;38.57;101434.91;5031650;28;20037;-71
2022/03/14 13:13:10;;;;;;;5.95;1.40;;;;;;;19.42;37.28;101429.13;5031145;28;20451;-71
2022/03/14 13:15:37;;;;;;;5.45;1.30;;;;;;;19.90;35.94;101441.75;5031589;28;20116;-72
2022/03/14 13:18:15;;;;;;;6.22;1.00;;;;;;;20.51;33.50;101436.16;5031516;28;20578;-71
2022/03/14 13:20:41;;;;;;;3.45;1.10;;;;;;;21.44;32.34;101436.75;5031546;28;20374;-71
2022/03/14 13:23:18;;;;;;;5.07;1.55;;;;;;;21.03;33.59;101418.13;5031198;28;20083;-70
2022/03/14 13:25:49;;;;;;;4.80;1.02;;;;;;;21.33;32.46;101429.31;5031504;28;20069;-71
2022/03/14 13:28:29;;;;;;;4.82;1.30;;;;;;;22.39;30.08;101425.88;5031454;28;20482;-71
2022/03/14 13:30:57;;;;;;;2.78;1.20;;;;;;;21.25;32.28;101427.63;5031356;28;20075;-71
2022/03/14 13:33:32;;;;;;;3.67;1.30;;;;;;;22.40;30.80;101424.84;5013387;28;20052;-70
2022/03/14 13:36:00;;;;;;;3.95;1.00;;;;;;;22.14;31.05;101429.44;5013761;28;20131;-71
2022/03/14 13:38:32;;;;;;;4.78;1.25;;;;;;;22.44;29.53;101429.59;5031694;28;20124;-72
2022/03/14 13:40:58;;;;;;;3.42;1.15;;;;;;;20.94;31.76;101422.13;5031604;28;20030;-70
2022/03/14 13:43:25;;;;;;;3.95;1.20;;;;;;;20.67;32.80;101426.75;5015584;28;20045;-71
2022/03/14 13:45:53;;;;;;;3.35;1.30;;;;;;;22.04;30.31;101425.50;5035481;28;20084;-70
2022/03/14 13:48:22;;;;;;;3.67;1.30;;;;;;;21.65;32.23;101419.34;5035148;28;20128;-72
2022/03/14 13:50:49;;;;;;;4.40;1.02;;;;;;;21.22;33.36;101411.81;5035197;28;20033;-73
2022/03/14 13:53:22;;;;;;;4.10;1.20;;;;;;;21.43;30.54;101407.16;5034754;28;20426;-71
2022/03/14 13:55:57;;;;;;;1.73;0.77;;;;;;;21.01;31.01;101412.13;5035110;28;20033;-70
2022/03/14 13:58:26;;;;;;;3.47;1.10;;;;;;;20.52;31.87;101414.31;5034942;28;20561;-69
2022/03/14 14:00:55;;;;;;;2.05;0.85;;;;;;;20.10;33.28;101412.84;5017199;28;20033;-70
2022/03/14 14:03:25;;;;;;;2.45;1.10;;;;;;;19.19;33.39;101410.56;5034779;28;20064;-73
2022/03/14 14:05:51;;;;;;;3.53;1.10;;;;;;;17.87;36.80;101423.94;5017378;28;20470;-72
2022/03/14 14:08:34;;;;;;;1.98;0.85;;;;;;;18.58;35.81;101409.56;5034963;28;20084;-71
2022/03/14 14:11:01;;;;;;;4.03;1.15;;;;;;;18.79;35.54;101411.41;5034867;28;20048;-70
2022/03/14 14:13:46;;;;;;;2.88;0.90;;;;;;;18.43;35.56;101406.97;5034700;28;20046;-71
2022/03/14 14:16:19;;;;;;;2.97;0.95;;;;;;;17.92;37.43;101412.56;5035367;28;20104;-72
2022/03/14 14:18:45;;;;;;;3.00;1.02;;;;;;;18.05;35.95;101411.84;5034970;28;20048;-73
2022/03/14 14:21:18;;;;;;;2.53;1.00;;;;;;;17.27;37.78;101408.94;5034779;28;20625;-72
2022/03/14 14:23:44;;;;;;;2.47;1.20;;;;;;;17.49;37.26;101425.16;5035002;28;20095;-74
2022/03/14 14:26:10;;;;;;;4.70;1.15;;;;;;;17.13;38.26;101420.59;5034687;28;20049;-71
2022/03/14 14:28:37;;;;;;;3.78;1.27;;;;;;;16.76;39.28;101424.25;5034587;28;20029;-71
2022/03/14 14:31:03;;;;;;;4.50;1.35;;;;;;;16.27;39.64;101419.31;5034399;28;20083;-73
2022/03/14 14:33:31;;;;;;;4.03;1.40;;;;;;;16.24;39.90;101428.59;5034176;28;20041;-73
2022/03/14 14:36:00;;;;;;;2.83;0.90;;;;;;;16.01;39.40;101430.47;5034567;28;20407;-72
2022/03/14 14:38:31;;;;;;;2.55;1.00;;;;;;;15.94;40.50;101424.97;5016549;28;20477;-72
2022/03/14 14:41:03;;;;;;;5.13;1.48;;;;;;;15.39;39.44;101420.63;5034843;28;20044;-73
2022/03/14 14:43:31;;;;;;;5.43;2.45;;;;;;;15.32;39.33;101419.66;5034187;28;20483;-71
2022/03/14 14:45:57;;;;;;;;;;;;;;;15.01;41.45;101426.84;5033280;28;20037;-72
2022/03/14 14:48:25;;;;;;;4.70;1.45;;;;;;;15.61;40.18;101424.34;5034309;28;20457;-73
2022/03/14 14:50:50;;;;;;;5.00;1.52;;;;;;;15.71;40.20;101430.34;5034178;28;20387;-73
2022/03/14 14:53:19;;;;;;;2.90;0.73;;;;;;;15.60;40.66;101421.84;4999270;28;20053;-71
2022/03/14 14:55:46;;;;;;;2.65;1.50;;;;;;;15.47;41.80;101427.78;5034220;28;20037;-71
2022/03/14 14:58:13;;;;;;;;;;;;;;;15.07;41.09;101426.13;5017151;28;20127;-73
2022/03/14 15:00:43;;;;;;;3.83;1.02;;;;;;;15.05;41.62;101430.81;5034311;28;20398;-72
2022/03/14 15:03:09;;;;;;;3.03;1.00;;;;;;;15.03;41.23;101427.47;5033357;28;20033;-72
2022/03/14 15:05:36;;;;;;;3.90;1.13;;;;;;;15.24;40.37;101422.34;5033845;28;20030;-72
2022/03/14 15:08:02;;;;;;;1.92;0.98;;;;;;;15.04;40.49;101426.47;5033645;28;20067;-71
2022/03/14 15:10:28;;;;;;;3.30;1.00;;;;;;;15.22;40.90;101424.38;5033680;28;20037;-73
2022/03/14 15:12:55;;;;;;;3.78;1.10;;;;;;;15.25;42.30;101424.00;5033370;28;20120;-71
2022/03/14 15:15:21;;;;;;;1.35;0.85;;;;;;;15.32;41.14;101419.66;5016017;28;20121;-73
2022/03/14 15:17:48;;;;;;;5.32;1.00;;;;;;;15.16;41.93;101417.88;5033734;28;20057;-73
2022/03/14 15:20:15;;;;;;;3.90;1.15;;;;;;;14.97;41.80;101423.66;5016045;28;20048;-72
2022/03/14 15:22:42;;;;;;;8.90;1.13;;;;;;;15.02;41.43;101428.50;5033305;28;20410;-72
2022/03/14 15:25:09;;;;;;;5.65;1.15;;;;;;;15.12;41.29;101434.47;5016290;28;20064;-72
2022/03/14 15:27:36;;;;;;;1.90;0.83;;;;;;;15.14;41.42;101430.63;5033816;28;20398;-72
2022/03/14 15:30:10;;;;;;;2.87;1.10;;;;;;;14.65;42.79;101424.56;5034036;28;20033;-72
2022/03/14 15:32:37;;;;;;;5.57;0.95;;;;;;;14.38;44.82;101425.78;5015203;28;20300;-72
2022/03/14 15:35:04;;;;;;;2.97;1.10;;;;;;;14.54;43.50;101439.19;5033359;28;20033;-73
2022/03/14 15:37:29;;;;;;;1.73;1.00;;;;;;;14.54;42.73;101441.00;5033344;28;20040;-72
2022/03/14 15:39:56;;;;;;;1.70;0.88;;;;;;;14.71;42.78;101439.97;5033243;28;20042;-72
2022/03/14 15:42:23;;;;;;;3.08;0.98;;;;;;;14.75;42.53;101430.59;5032763;28;20037;-72
2022/03/14 15:44:49;;;;;;;2.38;1.23;;;;;;;14.77;42.49;101433.94;5033182;28;20163;-72
2022/03/14 15:47:16;;;;;;;2.92;1.20;;;;;;;14.83;42.72;101432.41;5033186;28;20071;-72
2022/03/14 15:49:45;;;;;;;2.63;1.10;;;;;;;14.80;42.56;101430.94;5033098;28;20030;-72
2022/03/14 15:52:13;;;;;;;3.55;1.08;;;;;;;14.73;43.13;101429.91;5032625;28;20095;-72
2022/03/14 15:54:40;;;;;;;7.60;1.23;;;;;;;14.71;42.36;101428.41;5033122;28;20049;-71
2022/03/14 15:57:05;;;;;;;5.23;0.90;;;;;;;14.62;42.22;101430.28;5031694;28;20041;-72
2022/03/14 15:59:31;;;;;;;4.57;1.45;;;;;;;14.70;42.44;101427.59;5033057;28;20048;-72
2022/03/14 16:02:00;;;;;;;3.67;1.40;;;;;;;14.63;42.58;101431.97;5031072;28;20479;-71
2022/03/14 16:04:25;;;;;;;3.13;1.10;;;;;;;14.60;42.52;101429.63;5032690;28;20108;-70
2022/03/14 16:07:00;;;;;;;5.47;1.60;;;;;;;14.51;42.65;101420.75;5032461;28;20037;-72
2022/03/14 16:09:25;;;;;;;4.93;1.90;;;;;;;14.57;42.03;101427.28;5015101;28;20061;-71
2022/03/14 16:11:51;;;;;;;4.53;1.33;;;;;;;14.50;41.96;101435.19;5032024;28;20052;-70
2022/03/14 16:14:16;;;;;;;4.63;1.85;;;;;;;14.40;42.81;101435.31;5032540;28;20037;-73
2022/03/14 16:16:42;;;;;;;3.88;1.50;;;;;;;14.09;44.38;101435.19;5014961;28;20079;-71
2022/03/14 16:19:09;;;;;;;3.55;1.17;;;;;;;13.96;44.70;101434.84;5014763;28;20037;-71
2022/03/14 16:21:36;;;;;;;3.60;1.60;;;;;;;13.86;44.25;101436.81;5014364;28;20048;-70
2022/03/14 16:24:09;;;;;;;5.28;1.65;;;;;;;13.97;43.89;101438.34;5032388;28;20449;-73
2022/03/14 16:26:35;;;;;;;2.85;1.50;;;;;;;14.01;42.67;101435.16;5032240;28;20037;-72
2022/03/14 16:29:04;;;;;;;2.05;1.20;;;;;;;14.03;42.45;101432.34;5032387;28;20116;-72
2022/03/14 16:31:31;;;;;;;4.10;1.48;;;;;;;14.07;42.15;101430.97;5031795;28;20033;-71
2022/03/14 16:33:57;;;;;;;5.68;3.17;;;;;;;14.07;42.48;101439.00;5032165;28;20167;-71
2022/03/14 16:36:23;;;;;;;3.33;0.90;;;;;;;14.01;42.46;101439.69;5032425;28;20045;-72
2022/03/14 16:38:49;;;;;;;5.75;1.10;;;;;;;13.82;42.47;101430.13;5032290;28;20110;-72
2022/03/14 16:41:15;;;;;;;5.10;1.35;;;;;;;13.82;42.17;101433.66;5032113;28;20502;-71
2022/03/14 16:43:41;;;;;;;3.92;0.90;;;;;;;13.87;41.96;101438.50;5014200;28;20554;-70
2022/03/14 16:46:06;;;;;;;3.63;1.02;;;;;;;13.87;42.09;101435.00;5032071;28;20045;-70
2022/03/14 16:48:32;;;;;;;3.13;1.50;;;;;;;13.85;42.12;101441.34;5031997;28;20402;-73
2022/03/14 16:50:58;;;;;;;4.65;1.30;;;;;;;13.87;42.29;101433.16;5014182;28;20038;-71
2022/03/14 16:53:27;;;;;;;2.85;1.35;;;;;;;13.82;42.35;101435.47;5014438;28;20399;-70
2022/03/14 16:55:53;;;;;;;6.78;3.38;;;;;;;13.81;42.74;101434.63;5031856;28;20050;-70